sensor_id;sensor_type;location;lat;lon;timestamp;noise_LAeq;noise_LA_min;noise_LA_max;noise_LA01;noise_LA95
57439;Laerm;43282;47.188;8.896;2023-04-06T19:55:07;51.98;38.52;71.23;;
57439;Laerm;43282;47.188;8.896;2023-04-06T19:57:33;51.46;40.13;64.21;;
57439;Laerm;43282;47.188;8.896;2023-04-06T19:59:58;53.44;40.80;70.70;;
57439;Laerm;43282;47.188;8.896;2023-04-06T20:02:23;50.24;42.35;64.16;;
57439;Laerm;43282;47.188;8.896;2023-04-06T20:04:48;54.45;43.58;67.77;;
57439;Laerm;43282;47.188;8.896;2023-04-06T20:07:14;48.19;41.96;62.43;;
57439;Laerm;43282;47.188;8.896;2023-04-06T20:09:39;51.11;42.47;65.35;;
57439;Laerm;43282;47.188;8.896;2023-04-06T20:12:05;52.28;42.30;66.05;;
57439;Laerm;43282;47.188;8.896;2023-04-06T20:14:30;52.58;43.14;64.11;;
57439;Laerm;43282;47.188;8.896;2023-04-06T20:16:56;52.39;42.03;65.66;;
57439;Laerm;43282;47.188;8.896;2023-04-06T20:19:21;52.19;41.30;66.41;;
57439;Laerm;43282;47.188;8.896;2023-04-06T20:21:47;51.50;42.03;62.78;;
57439;Laerm;43282;47.188;8.896;2023-04-06T20:24:12;51.91;40.53;68.37;;
57439;Laerm;43282;47.188;8.896;2023-04-06T20:26:38;49.73;42.22;62.16;;
57439;Laerm;43282;47.188;8.896;2023-04-06T20:29:03;53.40;42.22;78.23;;
57439;Laerm;43282;47.188;8.896;2023-04-06T20:31:28;55.17;42.98;68.43;;
57439;Laerm;43282;47.188;8.896;2023-04-06T20:33:54;51.49;42.03;65.08;;
57439;Laerm;43282;47.188;8.896;2023-04-06T20:36:20;55.15;42.47;71.49;;
57439;Laerm;43282;47.188;8.896;2023-04-06T20:38:45;51.01;42.09;63.39;;
57439;Laerm;43282;47.188;8.896;2023-04-06T20:41:11;52.00;42.65;63.55;;
57439;Laerm;43282;47.188;8.896;2023-04-06T20:43:37;52.42;43.49;65.34;;
57439;Laerm;43282;47.188;8.896;2023-04-06T20:46:02;55.60;43.54;70.58;;
57439;Laerm;43282;47.188;8.896;2023-04-06T20:48:28;51.96;44.31;62.62;;
57439;Laerm;43282;47.188;8.896;2023-04-06T20:50:56;52.17;43.33;63.40;;
57439;Laerm;43282;47.188;8.896;2023-04-06T20:53:22;53.15;43.90;68.62;;
57439;Laerm;43282;47.188;8.896;2023-04-06T20:55:47;53.86;43.68;66.83;;
57439;Laerm;43282;47.188;8.896;2023-04-06T20:58:13;49.78;41.30;61.96;;
57439;Laerm;43282;47.188;8.896;2023-04-06T21:00:39;46.62;41.68;61.90;;
57439;Laerm;43282;47.188;8.896;2023-04-06T21:03:04;52.62;40.03;69.03;;
57439;Laerm;43282;47.188;8.896;2023-04-06T21:05:30;46.53;38.81;60.68;;
57439;Laerm;43282;47.188;8.896;2023-04-06T21:07:55;49.92;40.33;63.01;;
57439;Laerm;43282;47.188;8.896;2023-04-06T21:10:21;49.73;38.95;64.33;;
57439;Laerm;43282;47.188;8.896;2023-04-06T21:12:48;52.42;39.08;69.16;;
57439;Laerm;43282;47.188;8.896;2023-04-06T21:15:13;50.27;40.33;66.44;;
57439;Laerm;43282;47.188;8.896;2023-04-06T21:17:38;52.42;39.11;64.70;;
57439;Laerm;43282;47.188;8.896;2023-04-06T21:20:04;50.02;39.89;64.63;;
57439;Laerm;43282;47.188;8.896;2023-04-06T21:22:29;46.63;37.70;60.66;;
57439;Laerm;43282;47.188;8.896;2023-04-06T21:24:55;48.94;38.21;61.51;;
57439;Laerm;43282;47.188;8.896;2023-04-06T21:27:20;50.10;38.81;64.44;;
57439;Laerm;43282;47.188;8.896;2023-04-06T21:29:46;49.99;38.52;61.72;;
57439;Laerm;43282;47.188;8.896;2023-04-06T21:32:11;47.52;38.47;62.57;;
57439;Laerm;43282;47.188;8.896;2023-04-06T21:34:36;49.85;39.81;63.36;;
57439;Laerm;43282;47.188;8.896;2023-04-06T21:37:02;44.16;40.43;54.83;;
57439;Laerm;43282;47.188;8.896;2023-04-06T21:39:27;49.98;39.46;63.08;;
57439;Laerm;43282;47.188;8.896;2023-04-06T21:41:55;49.07;40.03;62.57;;
57439;Laerm;43282;47.188;8.896;2023-04-06T21:44:21;47.89;40.13;65.18;;
57439;Laerm;43282;47.188;8.896;2023-04-06T21:46:46;51.72;41.82;64.76;;
57439;Laerm;43282;47.188;8.896;2023-04-06T21:49:11;50.36;40.33;63.28;;
57439;Laerm;43282;47.188;8.896;2023-04-06T21:51:37;48.97;41.53;63.08;;
57439;Laerm;43282;47.188;8.896;2023-04-06T21:54:02;49.89;41.38;62.18;;
57439;Laerm;43282;47.188;8.896;2023-04-06T21:56:27;48.15;40.80;63.27;;
57439;Laerm;43282;47.188;8.896;2023-04-06T21:58:53;51.29;42.22;64.61;;
57439;Laerm;43282;47.188;8.896;2023-04-06T22:01:19;49.02;41.96;61.93;;
57439;Laerm;43282;47.188;8.896;2023-04-06T22:03:45;46.75;41.75;55.42;;
57439;Laerm;43282;47.188;8.896;2023-04-06T22:06:13;49.97;42.09;65.88;;
57439;Laerm;43282;47.188;8.896;2023-04-06T22:08:39;49.77;40.98;62.26;;
57439;Laerm;43282;47.188;8.896;2023-04-06T22:11:07;49.59;41.68;61.64;;
57439;Laerm;43282;47.188;8.896;2023-04-06T22:13:33;51.21;42.16;64.12;;
57439;Laerm;43282;47.188;8.896;2023-04-06T22:15:59;54.47;44.97;63.73;;
57439;Laerm;43282;47.188;8.896;2023-04-06T22:18:24;50.12;39.46;61.62;;
57439;Laerm;43282;47.188;8.896;2023-04-06T22:20:49;51.70;41.96;64.70;;
57439;Laerm;43282;47.188;8.896;2023-04-06T22:23:15;49.52;41.82;63.96;;
57439;Laerm;43282;47.188;8.896;2023-04-06T22:25:40;50.54;43.19;62.29;;
57439;Laerm;43282;47.188;8.896;2023-04-06T22:28:05;51.41;42.47;65.81;;
57439;Laerm;43282;47.188;8.896;2023-04-06T22:30:31;49.69;42.09;64.65;;
57439;Laerm;43282;47.188;8.896;2023-04-06T22:32:56;50.97;40.03;66.39;;
57439;Laerm;43282;47.188;8.896;2023-04-06T22:35:21;49.22;41.89;62.58;;
57439;Laerm;43282;47.188;8.896;2023-04-06T22:37:47;46.96;38.67;60.97;;
57439;Laerm;43282;47.188;8.896;2023-04-06T22:40:12;49.99;40.62;65.29;;
57439;Laerm;43282;47.188;8.896;2023-04-06T22:42:37;48.24;40.43;63.93;;
57439;Laerm;43282;47.188;8.896;2023-04-06T22:45:03;50.32;42.76;62.52;;
57439;Laerm;43282;47.188;8.896;2023-04-06T22:47:28;50.90;42.93;62.89;;
57439;Laerm;43282;47.188;8.896;2023-04-06T22:49:54;47.87;41.61;59.96;;
57439;Laerm;43282;47.188;8.896;2023-04-06T22:52:19;50.35;42.59;63.63;;
57439;Laerm;43282;47.188;8.896;2023-04-06T22:54:45;50.72;42.41;61.34;;
57439;Laerm;43282;47.188;8.896;2023-04-06T22:57:10;50.00;38.95;61.51;;
57439;Laerm;43282;47.188;8.896;2023-04-06T22:59:35;51.18;41.68;66.08;;
57439;Laerm;43282;47.188;8.896;2023-04-06T23:02:01;48.63;41.14;58.53;;
57439;Laerm;43282;47.188;8.896;2023-04-06T23:04:26;49.67;39.81;64.65;;
57439;Laerm;43282;47.188;8.896;2023-04-06T23:06:51;53.22;38.52;69.19;;
57439;Laerm;43282;47.188;8.896;2023-04-06T23:09:17;50.29;39.46;64.40;;
57439;Laerm;43282;47.188;8.896;2023-04-06T23:11:42;43.09;38.52;51.17;;
57439;Laerm;43282;47.188;8.896;2023-04-06T23:14:07;42.88;38.67;49.52;;
57439;Laerm;43282;47.188;8.896;2023-04-06T23:16:32;41.97;39.21;49.95;;
57439;Laerm;43282;47.188;8.896;2023-04-06T23:18:58;46.36;37.70;59.87;;
57439;Laerm;43282;47.188;8.896;2023-04-06T23:21:23;46.33;36.91;62.35;;
57439;Laerm;43282;47.188;8.896;2023-04-06T23:23:48;46.46;38.05;62.84;;
57439;Laerm;43282;47.188;8.896;2023-04-06T23:26:14;48.39;36.69;63.17;;
57439;Laerm;43282;47.188;8.896;2023-04-06T23:28:39;46.96;37.32;62.51;;
57439;Laerm;43282;47.188;8.896;2023-04-06T23:31:05;50.37;37.12;66.40;;
57439;Laerm;43282;47.188;8.896;2023-04-06T23:33:30;41.12;37.12;44.47;;
57439;Laerm;43282;47.188;8.896;2023-04-06T23:35:55;45.07;36.20;61.14;;
57439;Laerm;43282;47.188;8.896;2023-04-06T23:38:21;39.05;33.44;43.09;;
57439;Laerm;43282;47.188;8.896;2023-04-06T23:40:46;39.52;35.66;42.59;;
57439;Laerm;43282;47.188;8.896;2023-04-06T23:43:11;39.97;35.36;44.47;;
57439;Laerm;43282;47.188;8.896;2023-04-06T23:45:40;45.28;32.93;62.25;;
57439;Laerm;43282;47.188;8.896;2023-04-06T23:48:06;45.16;37.12;62.57;;
57439;Laerm;43282;47.188;8.896;2023-04-06T23:50:33;45.31;37.32;62.40;;
57439;Laerm;43282;47.188;8.896;2023-04-06T23:52:58;48.35;36.20;68.42;;
57439;Laerm;43282;47.188;8.896;2023-04-06T23:55:24;46.64;36.91;62.42;;
57439;Laerm;43282;47.188;8.896;2023-04-06T23:57:49;41.41;36.91;47.95;;
